Time;durP1;ratioP1;P1;durP2;ratioP2;P2;SDS_P1;SDS_P2;PMS_P1;PMS_P2;Temp;Humidity;BMP_temperature;BMP_pressure;BME280_temperature;BME280_humidity;BME280_pressure;Samples;Min_cycle;Max_cycle;Signal;HPM_P1;HPM_P2
2022/05/12 00:00:18;;;;;;;11.00;8.90;;;;;;;16.40;67.55;98364.23;2178140;81;21084;-87
2022/05/12 00:03:20;;;;;;;9.33;8.38;;;;;;;16.36;67.69;98367.02;2170945;81;21052;-88
2022/05/12 00:06:21;;;;;;;9.08;7.75;;;;;;;16.36;67.75;98367.02;2188988;81;21017;-87
2022/05/12 00:09:22;;;;;;;10.65;8.20;;;;;;;16.34;67.82;98359.84;2166680;81;21065;-87
2022/05/12 00:12:23;;;;;;;9.28;8.03;;;;;;;16.31;67.94;98359.78;2185519;81;21051;-87
2022/05/12 00:15:23;;;;;;;10.50;8.80;;;;;;;16.29;67.94;98357.08;2193985;81;21008;-87
2022/05/12 00:18:24;;;;;;;9.73;7.87;;;;;;;16.26;68.26;98356.98;2168646;81;21040;-85
2022/05/12 00:21:25;;;;;;;9.95;8.63;;;;;;;16.24;67.94;98351.65;2181009;80;21037;-86
2022/05/12 00:24:26;;;;;;;9.40;8.43;;;;;;;16.21;68.33;98347.63;2182033;81;21008;-87
2022/05/12 00:27:27;;;;;;;12.15;9.58;;;;;;;16.19;68.45;98343.09;2182786;81;21047;-85
2022/05/12 00:30:28;;;;;;;14.75;9.08;;;;;;;16.17;68.33;98345.93;2190928;81;21025;-86
2022/05/12 00:33:28;;;;;;;9.68;8.68;;;;;;;16.14;68.51;98341.11;2169728;81;21036;-86
2022/05/12 00:36:29;;;;;;;9.33;8.35;;;;;;;16.11;68.58;98338.13;2173157;81;21687;-86
2022/05/12 00:39:30;;;;;;;9.48;8.45;;;;;;;16.08;68.51;98334.59;2163205;81;20992;-87
2022/05/12 00:42:31;;;;;;;12.80;8.30;;;;;;;16.06;68.60;98335.33;2169020;81;21140;-85
2022/05/12 00:45:31;;;;;;;8.13;7.42;;;;;;;16.04;68.58;98339.52;2153905;81;21024;-85
2022/05/12 00:48:32;;;;;;;9.58;8.68;;;;;;;16.02;68.59;98334.18;2191815;81;21064;-86
2022/05/12 00:51:33;;;;;;;9.85;8.98;;;;;;;16.00;68.66;98330.45;2185018;81;21043;-86
2022/05/12 00:54:34;;;;;;;10.63;7.90;;;;;;;15.98;68.72;98328.52;2166262;81;20976;-85
2022/05/12 00:57:34;;;;;;;10.20;7.95;;;;;;;15.96;68.66;98326.63;2161749;81;21193;-86
2022/05/12 01:00:53;;;;;;;8.48;7.42;;;;;;;15.95;68.56;98330.81;2163431;81;21070;-88
2022/05/12 01:03:42;;;;;;;7.85;7.15;;;;;;;15.93;68.75;98331.05;2164291;81;21508;-87
2022/05/12 01:06:46;;;;;;;10.10;7.58;;;;;;;15.90;68.69;98330.95;2174932;81;21059;-87
2022/05/12 01:09:46;;;;;;;9.08;7.90;;;;;;;15.89;68.57;98334.63;2174257;81;21046;-85
2022/05/12 01:12:48;;;;;;;9.15;7.75;;;;;;;15.86;68.70;98322.39;2168749;81;21516;-86
2022/05/12 01:15:49;;;;;;;8.93;7.35;;;;;;;15.84;68.66;98325.78;2162145;81;21124;-87
2022/05/12 01:18:50;;;;;;;9.13;7.20;;;;;;;15.81;68.53;98324.37;2186267;81;20993;-86
2022/05/12 01:21:51;;;;;;;9.30;7.33;;;;;;;15.80;68.54;98324.08;2184742;81;21184;-86
2022/05/12 01:24:51;;;;;;;8.68;7.62;;;;;;;15.79;68.74;98324.30;2176099;81;20996;-87
2022/05/12 01:27:52;;;;;;;7.90;7.08;;;;;;;15.77;68.74;98322.41;2160995;81;21118;-86
2022/05/12 01:30:53;;;;;;;8.28;7.45;;;;;;;15.75;68.86;98320.52;2184063;81;21067;-86
2022/05/12 01:33:54;;;;;;;8.95;6.90;;;;;;;15.73;68.83;98325.21;2180718;81;21016;-86
2022/05/12 01:36:54;;;;;;;10.53;7.20;;;;;;;15.69;68.79;98322.70;2181459;81;21039;-86
2022/05/12 01:39:55;;;;;;;8.20;7.37;;;;;;;15.67;68.77;98321.61;2174292;81;21064;-86
2022/05/12 01:42:56;;;;;;;8.05;7.25;;;;;;;15.63;68.98;98315.98;2190160;81;21008;-86
2022/05/12 01:45:57;;;;;;;8.55;7.60;;;;;;;15.60;68.77;98317.73;2157850;81;21035;-87
2022/05/12 01:48:58;;;;;;;8.15;7.35;;;;;;;15.57;68.97;98316.02;2172694;81;20992;-87
2022/05/12 01:51:59;;;;;;;9.00;7.37;;;;;;;15.55;69.04;98315.45;2191991;81;21053;-86
2022/05/12 01:55:00;;;;;;;9.33;7.30;;;;;;;15.51;68.93;98317.70;2175641;81;21543;-86
2022/05/12 01:58:00;;;;;;;11.30;7.35;;;;;;;15.49;68.83;98313.16;2185551;81;21047;-86
2022/05/12 02:01:01;;;;;;;7.80;6.78;;;;;;;15.47;69.00;98317.05;2166362;81;21563;-85
2022/05/12 02:04:02;;;;;;;7.87;6.80;;;;;;;15.44;69.03;98316.96;2160856;81;21020;-85
2022/05/12 02:07:03;;;;;;;9.40;6.90;;;;;;;15.41;69.06;98304.73;2181739;81;21074;-85
2022/05/12 02:10:03;;;;;;;7.80;6.58;;;;;;;15.40;69.10;98304.45;2172482;81;20972;-87
2022/05/12 02:13:04;;;;;;;9.30;7.95;;;;;;;15.38;69.05;98298.08;2180912;81;21055;-86
2022/05/12 02:16:05;;;;;;;10.23;7.10;;;;;;;15.35;69.06;98296.66;2160440;81;21079;-85
2022/05/12 02:19:06;;;;;;;10.53;7.22;;;;;;;15.33;68.99;98299.23;2153259;81;21071;-85
2022/05/12 02:22:06;;;;;;;8.20;6.42;;;;;;;15.31;68.81;98298.14;2183935;81;21052;-85
2022/05/12 02:25:07;;;;;;;9.33;7.53;;;;;;;15.31;68.90;98296.02;2185509;81;21009;-84
2022/05/12 02:28:08;;;;;;;14.18;8.63;;;;;;;15.30;68.70;98291.77;2172907;81;21135;-86
2022/05/12 02:31:08;;;;;;;8.60;6.83;;;;;;;15.30;68.74;98295.73;2153348;81;21573;-85
2022/05/12 02:34:09;;;;;;;8.13;7.30;;;;;;;15.29;68.76;98290.16;2177237;81;21544;-85
2022/05/12 02:37:10;;;;;;;10.68;7.40;;;;;;;15.29;68.71;98290.16;2179901;81;21020;-85
2022/05/12 02:40:11;;;;;;;9.45;7.25;;;;;;;15.29;68.65;98287.02;2180471;81;21088;-85
2022/05/12 02:43:24;;;;;;;14.03;7.33;;;;;;;15.30;68.70;98284.66;2165790;81;20968;-85
2022/05/12 02:46:25;;;;;;;11.35;7.35;;;;;;;15.31;68.47;98284.95;2174595;81;21035;-86
2022/05/12 02:49:25;;;;;;;10.70;8.23;;;;;;;15.32;68.42;98285.24;2178966;81;21028;-86
2022/05/12 02:52:26;;;;;;;10.80;7.28;;;;;;;15.34;68.35;98280.55;2175778;81;21072;-85
2022/05/12 02:55:30;;;;;;;11.75;7.45;;;;;;;15.35;68.23;98279.52;2173202;81;21119;-84
2022/05/12 02:58:31;;;;;;;11.63;7.42;;;;;;;15.36;68.28;98274.56;2153792;81;21119;-84
2022/05/12 03:01:32;;;;;;;8.70;7.22;;;;;;;15.38;68.06;98278.30;2187250;81;21060;-85
2022/05/12 03:04:33;;;;;;;8.90;7.08;;;;;;;15.41;68.04;98284.95;2189890;81;21095;-85
2022/05/12 03:07:33;;;;;;;9.90;6.78;;;;;;;15.43;68.02;98277.09;2192183;81;21108;-85
2022/05/12 03:10:34;;;;;;;7.65;6.60;;;;;;;15.48;67.84;98277.26;2192976;81;21601;-85
2022/05/12 03:13:35;;;;;;;9.33;6.50;;;;;;;15.55;67.71;98274.55;2175340;81;21060;-86
2022/05/12 03:16:35;;;;;;;9.58;7.17;;;;;;;15.61;67.53;98267.88;2157905;81;21028;-83
2022/05/12 03:19:36;;;;;;;11.03;6.72;;;;;;;15.68;67.29;98270.44;2163621;81;22133;-84
2022/05/12 03:22:37;;;;;;;6.92;5.50;;;;;;;15.74;67.08;98275.35;2173568;81;21533;-84
2022/05/12 03:25:38;;;;;;;9.23;6.42;;;;;;;15.81;67.03;98278.17;2168436;81;21031;-85
2022/05/12 03:28:38;;;;;;;9.03;5.83;;;;;;;15.98;66.64;98273.08;2183035;81;21075;-84
2022/05/12 03:31:39;;;;;;;6.58;5.47;;;;;;;16.31;66.28;98267.84;2174354;81;20978;-85
2022/05/12 03:34:40;;;;;;;7.70;5.28;;;;;;;16.72;65.46;98269.63;2153612;81;21052;-84
2022/05/12 03:37:41;;;;;;;6.15;5.47;;;;;;;17.19;64.43;98262.48;2162587;81;21047;-84
2022/05/12 03:40:41;;;;;;;6.17;5.45;;;;;;;17.70;63.59;98268.80;2164260;81;21060;-85
2022/05/12 03:47:01;;;;;;;6.65;5.80;;;;;;;18.67;60.99;98266.00;2180360;81;21036;-85
2022/05/12 03:50:03;;;;;;;8.90;5.12;;;;;;;19.22;59.49;98259.87;2174809;81;21162;-85
2022/05/12 03:53:05;;;;;;;5.92;5.03;;;;;;;19.72;58.92;98260.73;2155639;81;21078;-85
2022/05/12 03:56:06;;;;;;;6.15;4.67;;;;;;;20.21;57.30;98261.50;2157980;81;21617;-86
2022/05/12 03:59:07;;;;;;;5.90;4.75;;;;;;;21.16;55.19;98241.69;2178532;81;21063;-87
2022/05/12 04:02:08;;;;;;;6.75;4.47;;;;;;;21.16;55.19;98241.69;2179780;81;20985;-84
2022/05/12 04:05:09;;;;;;;4.97;4.05;;;;;;;21.74;52.79;98247.77;2165066;81;21550;-84
2022/05/12 04:08:09;;;;;;;4.67;4.28;;;;;;;22.24;51.72;98250.29;2167965;81;21058;-85
2022/05/12 04:11:10;;;;;;;6.17;4.05;;;;;;;22.57;50.82;98243.06;2187174;81;21028;-85
2022/05/12 04:14:11;;;;;;;4.50;4.10;;;;;;;22.60;50.56;98243.88;2192216;81;21048;-85
2022/05/12 04:17:13;;;;;;;6.72;4.78;;;;;;;22.74;49.33;98245.98;2162985;81;21029;-84
2022/05/12 04:20:14;;;;;;;4.83;4.45;;;;;;;23.11;48.46;98249.66;2178952;81;21063;-85
2022/05/12 04:23:15;;;;;;;5.37;4.35;;;;;;;23.50;48.44;98242.58;2171175;81;21575;-85
2022/05/12 04:26:15;;;;;;;5.60;4.25;;;;;;;24.02;46.41;98242.55;2166098;81;20984;-86
2022/05/12 04:29:19;;;;;;;8.70;4.40;;;;;;;24.46;46.36;98244.39;2158166;81;21546;-84
2022/05/12 04:32:20;;;;;;;5.15;4.65;;;;;;;24.97;45.11;98255.97;2189782;81;20973;-86
2022/05/12 04:35:21;;;;;;;7.12;3.90;;;;;;;25.38;43.79;98248.82;2167185;81;21019;-85
2022/05/12 04:38:21;;;;;;;8.20;4.67;;;;;;;25.37;43.49;98255.27;2170549;81;21025;-86
2022/05/12 04:41:22;;;;;;;4.95;4.30;;;;;;;25.31;43.05;98258.54;2186596;81;21008;-86
2022/05/12 04:44:23;;;;;;;6.58;4.03;;;;;;;25.63;41.75;98261.11;2173219;81;21116;-85
2022/05/12 04:47:23;;;;;;;7.08;4.67;;;;;;;26.01;40.96;98260.60;2185475;81;21008;-86
2022/05/12 04:50:24;;;;;;;8.68;5.05;;;;;;;26.40;41.24;98259.48;2181424;81;21084;-86
2022/05/12 04:53:25;;;;;;;8.63;4.70;;;;;;;26.51;40.37;98255.54;2176537;81;21043;-86
2022/05/12 04:56:26;;;;;;;9.10;4.65;;;;;;;26.09;40.11;98263.42;2166275;81;21083;-89
2022/05/12 04:59:27;;;;;;;4.35;3.95;;;;;;;25.80;40.54;98262.78;2167059;81;21103;-87
2022/05/12 05:02:28;;;;;;;4.60;4.20;;;;;;;25.48;41.10;98275.48;2164951;81;21451;-85
2022/05/12 05:05:28;;;;;;;8.93;5.12;;;;;;;25.31;41.32;98271.14;2169620;81;21047;-83
2022/05/12 05:08:29;;;;;;;24.32;5.95;;;;;;;25.05;41.35;98271.41;2193779;81;21057;-81
2022/05/12 05:11:30;;;;;;;7.72;5.05;;;;;;;25.12;41.76;98274.56;2190009;81;21114;-80
2022/05/12 05:14:31;;;;;;;7.62;4.67;;;;;;;25.20;41.59;98272.59;2193220;81;21671;-82
2022/05/12 05:17:31;;;;;;;6.10;4.28;;;;;;;25.17;41.67;98269.16;2192100;81;21016;-85
2022/05/12 05:20:35;;;;;;;5.53;4.28;;;;;;;25.07;41.69;98271.16;2181088;81;21000;-86
2022/05/12 05:23:36;;;;;;;6.85;4.70;;;;;;;25.04;42.11;98275.17;2157616;81;21076;-86
2022/05/12 05:26:37;;;;;;;8.98;4.87;;;;;;;25.04;42.18;98275.72;2155339;81;21055;-86
2022/05/12 05:29:37;;;;;;;8.60;4.17;;;;;;;25.15;42.33;98273.21;2174384;81;21040;-86
2022/05/12 05:32:38;;;;;;;7.45;4.80;;;;;;;25.32;42.49;98276.75;2181068;81;21035;-84
2022/05/12 05:35:41;;;;;;;4.40;3.92;;;;;;;25.36;41.34;98277.25;2166506;81;21153;-85
2022/05/12 05:38:41;;;;;;;11.00;4.47;;;;;;;25.26;41.99;98277.37;2169174;81;21008;-83
2022/05/12 05:41:42;;;;;;;5.15;4.72;;;;;;;25.24;42.11;98278.20;2190602;81;21048;-87
2022/05/12 05:44:43;;;;;;;7.85;4.60;;;;;;;25.32;42.13;98276.75;2182156;81;21527;-84
2022/05/12 05:47:45;;;;;;;6.22;4.08;;;;;;;25.48;42.19;98285.66;2184805;81;21017;-85
2022/05/12 05:54:05;;;;;;;6.55;4.20;;;;;;;25.88;41.83;98277.41;2191688;81;21048;-84
2022/05/12 05:57:05;;;;;;;6.87;4.37;;;;;;;26.04;41.56;98275.56;2176237;81;21001;-84
2022/05/12 06:00:06;;;;;;;4.47;4.10;;;;;;;25.98;41.52;98273.27;2166259;81;21558;-85
2022/05/12 06:03:07;;;;;;;19.75;5.22;;;;;;;26.06;41.63;98274.75;2184355;81;21071;-85
2022/05/12 06:06:08;;;;;;;4.67;4.17;;;;;;;26.15;41.57;98268.18;2188878;81;20977;-86
2022/05/12 06:09:08;;;;;;;6.90;4.08;;;;;;;25.93;41.72;98276.00;2170990;81;21594;-84
2022/05/12 06:12:09;;;;;;;6.05;4.25;;;;;;;25.52;41.64;98271.97;2169363;81;21075;-84
2022/05/12 06:15:10;;;;;;;5.60;4.33;;;;;;;25.24;42.11;98274.98;2175335;81;21005;-84
2022/05/12 06:18:12;;;;;;;7.83;5.17;;;;;;;24.99;42.01;98272.54;2173437;81;21092;-83
2022/05/12 06:21:13;;;;;;;8.15;4.37;;;;;;;24.94;42.68;98278.73;2184283;81;21074;-85
2022/05/12 06:24:13;;;;;;;5.10;4.60;;;;;;;25.01;43.13;98266.35;2190038;81;21531;-89
2022/05/12 06:27:14;;;;;;;7.15;4.50;;;;;;;25.17;43.08;98274.52;2191636;81;21029;-84
2022/05/12 06:30:15;;;;;;;6.35;4.97;;;;;;;25.29;43.28;98274.11;2182890;81;21084;-84
2022/05/12 06:33:16;;;;;;;5.67;3.90;;;;;;;25.38;43.60;98272.39;2187296;81;21028;-85
2022/05/12 06:36:17;;;;;;;4.70;3.77;;;;;;;25.40;43.11;98280.94;2190792;81;21578;-89
2022/05/12 06:39:18;;;;;;;4.50;4.10;;;;;;;25.40;43.22;98277.46;2170435;81;21127;-88
2022/05/12 06:42:18;;;;;;;9.90;4.42;;;;;;;25.44;43.64;98273.94;2173587;81;21555;-89
2022/05/12 06:45:19;;;;;;;5.08;4.37;;;;;;;25.58;43.70;98280.72;2190827;81;21136;-88
2022/05/12 06:48:20;;;;;;;4.85;4.40;;;;;;;25.76;43.90;98278.64;2189379;81;20992;-88
2022/05/12 06:51:21;;;;;;;6.33;3.98;;;;;;;25.89;43.30;98282.50;2166046;81;21100;-88
2022/05/12 06:54:22;;;;;;;6.05;4.15;;;;;;;25.89;42.89;98282.50;2153393;81;21447;-88
2022/05/12 06:57:27;;;;;;;4.50;3.77;;;;;;;25.87;42.04;98283.86;2172429;81;21055;-88
2022/05/12 07:00:26;;;;;;;7.78;4.33;;;;;;;25.82;42.21;98279.37;2163683;81;21526;-88
2022/05/12 07:03:27;;;;;;;11.68;4.65;;;;;;;25.71;42.40;98284.08;2164832;81;21108;-87
2022/05/12 07:06:28;;;;;;;4.33;4.00;;;;;;;25.68;42.41;98293.19;2185530;81;21021;-87
2022/05/12 07:09:31;;;;;;;7.60;4.40;;;;;;;25.72;42.77;98289.70;2175470;81;21138;-87
2022/05/12 07:12:31;;;;;;;7.75;4.53;;;;;;;25.84;42.88;98290.60;2190932;81;21017;-86
2022/05/12 07:15:32;;;;;;;4.67;4.20;;;;;;;25.97;42.54;98292.58;2185800;81;21114;-87
2022/05/12 07:18:34;;;;;;;10.00;4.70;;;;;;;26.21;42.57;98289.00;2185259;81;21064;-86
2022/05/12 07:28:15;;;;;;;11.48;3.85;;;;;;;27.14;40.88;98300.09;2150961;81;21007;-82
2022/05/12 07:31:16;;;;;;;4.42;3.50;;;;;;;27.21;38.65;98299.70;2153727;81;21004;-86
2022/05/12 07:34:16;;;;;;;3.47;2.77;;;;;;;27.24;39.45;98292.39;2162364;81;21728;-86
2022/05/12 07:37:17;;;;;;;10.05;3.47;;;;;;;27.31;35.96;98283.38;2159682;81;21012;-86
2022/05/12 07:40:19;;;;;;;17.82;4.62;;;;;;;27.26;37.44;98301.52;2175483;81;20981;-86
2022/05/12 07:43:19;;;;;;;16.52;4.10;;;;;;;27.15;37.73;98293.63;2154554;81;21541;-85
2022/05/12 07:46:21;;;;;;;14.18;4.60;;;;;;;27.04;37.46;98292.23;2157936;81;21065;-86
2022/05/12 07:49:22;;;;;;;5.50;3.40;;;;;;;26.96;37.45;98287.51;2153545;81;20988;-87
2022/05/12 07:52:26;;;;;;;9.78;3.90;;;;;;;26.97;37.95;98282.38;2153574;81;21086;-89
2022/05/12 07:55:26;;;;;;;3.50;3.20;;;;;;;27.11;37.49;98279.75;2153639;81;21115;-87
2022/05/12 07:58:26;;;;;;;25.68;4.35;;;;;;;27.43;37.82;98293.63;2167887;81;21008;-85
2022/05/12 08:01:27;;;;;;;10.10;4.00;;;;;;;27.64;36.39;98280.58;2179069;81;21114;-86
2022/05/12 08:04:28;;;;;;;75.28;11.40;;;;;;;27.55;36.09;98306.59;2164855;81;21066;-86
2022/05/12 08:07:29;;;;;;;8.15;4.17;;;;;;;27.46;35.96;98312.66;2183772;81;21055;-86
2022/05/12 08:10:30;;;;;;;9.08;3.85;;;;;;;27.21;35.30;98315.28;2174411;81;21072;-86
2022/05/12 08:13:31;;;;;;;11.83;4.30;;;;;;;27.05;35.90;98309.94;2171070;81;21040;-88
2022/05/12 08:16:32;;;;;;;7.17;3.67;;;;;;;26.91;36.03;98311.79;2169066;81;20999;-85
2022/05/12 08:19:32;;;;;;;3.77;3.22;;;;;;;26.77;36.10;98298.87;2172494;81;20991;-86
2022/05/12 08:22:33;;;;;;;9.85;4.05;;;;;;;26.78;36.87;98302.59;2173196;81;21159;-87
2022/05/12 08:25:34;;;;;;;8.20;4.00;;;;;;;26.79;37.20;98300.70;2164883;81;20976;-85
2022/05/12 08:28:35;;;;;;;4.22;3.45;;;;;;;26.75;36.84;98311.80;2192558;81;21051;-83
2022/05/12 08:31:35;;;;;;;4.45;3.72;;;;;;;26.66;37.52;98313.02;2176988;81;21032;-85
2022/05/12 08:34:36;;;;;;;11.97;4.40;;;;;;;26.64;38.06;98311.17;2190144;81;21039;-87
2022/05/12 08:37:37;;;;;;;6.47;3.83;;;;;;;26.57;37.27;98331.67;2179358;81;21515;-85
2022/05/12 08:40:39;;;;;;;3.90;3.60;;;;;;;26.54;37.34;98313.48;2159860;81;21528;-86
2022/05/12 08:43:40;;;;;;;6.50;3.72;;;;;;;26.55;37.41;98309.70;2164620;81;21345;-86
2022/05/12 08:46:41;;;;;;;10.93;3.90;;;;;;;26.55;37.13;98310.25;2186323;81;21571;-86
2022/05/12 08:49:41;;;;;;;14.78;3.85;;;;;;;26.54;37.68;98307.31;2165897;81;21037;-85
2022/05/12 08:52:42;;;;;;;5.47;4.22;;;;;;;26.54;37.90;98305.42;2183207;81;21058;-84
2022/05/12 08:55:43;;;;;;;3.80;3.42;;;;;;;26.53;37.22;98314.58;2184878;81;21658;-84
2022/05/12 08:58:46;;;;;;;7.08;4.50;;;;;;;26.56;37.90;98311.30;2181295;81;21012;-84
2022/05/12 09:01:46;;;;;;;8.25;3.85;;;;;;;26.65;37.98;98323.50;2170932;81;21020;-85
2022/05/12 09:04:48;;;;;;;13.65;5.33;;;;;;;26.74;37.56;98309.66;2183719;81;21559;-83
2022/05/12 09:07:49;;;;;;;7.35;3.92;;;;;;;26.75;36.10;98326.02;2178099;81;21047;-83
2022/05/12 09:10:50;;;;;;;11.03;4.40;;;;;;;26.83;36.82;98328.03;2158568;81;21535;-85
2022/05/12 09:13:53;;;;;;;17.73;4.40;;;;;;;26.95;37.18;98328.89;2164684;81;21060;-86
2022/05/12 09:16:53;;;;;;;13.85;4.97;;;;;;;27.07;36.96;98306.98;2175968;81;21051;-84
2022/05/12 09:19:54;;;;;;;3.83;3.47;;;;;;;27.08;37.12;98326.03;2171570;81;21023;-85
2022/05/12 09:22:55;;;;;;;6.47;3.65;;;;;;;27.17;36.94;98328.28;2184441;81;21047;-86
2022/05/12 09:25:56;;;;;;;3.77;3.40;;;;;;;27.26;37.10;98335.11;2175902;81;21020;-85
2022/05/12 09:28:56;;;;;;;19.57;5.67;;;;;;;27.46;35.98;98320.73;2167141;81;21020;-83
2022/05/12 09:31:57;;;;;;;8.00;3.42;;;;;;;27.60;34.61;98339.52;2166808;81;21000;-87
2022/05/12 09:34:58;;;;;;;7.50;3.15;;;;;;;27.74;34.92;98333.63;2176119;81;21146;-88
2022/05/12 09:37:59;;;;;;;3.92;3.12;;;;;;;27.88;34.76;98335.49;2171719;81;21099;-86
2022/05/12 09:41:00;;;;;;;6.58;3.75;;;;;;;27.98;35.06;98337.96;2180287;81;21095;-87
2022/05/12 09:44:01;;;;;;;5.70;3.55;;;;;;;27.96;35.24;98349.03;2181156;81;21076;-87
2022/05/12 09:47:02;;;;;;;5.33;3.22;;;;;;;27.90;35.09;98353.50;2166229;81;21008;-87
2022/05/12 09:50:15;;;;;;;2.85;2.65;;;;;;;27.84;35.28;98348.77;2192156;81;21032;-83
2022/05/12 09:53:06;;;;;;;16.05;3.60;;;;;;;27.95;35.34;98354.72;2178809;81;21051;-83
2022/05/12 09:56:06;;;;;;;9.33;3.58;;;;;;;28.09;34.42;98363.58;2164322;81;21568;-85
2022/05/12 09:59:07;;;;;;;7.17;3.12;;;;;;;28.10;34.33;98359.78;2176696;81;21084;-86
2022/05/12 10:02:08;;;;;;;4.55;3.17;;;;;;;28.03;34.14;98345.39;2189555;81;21503;-87
2022/05/12 10:08:28;;;;;;;4.37;3.75;;;;;;;28.04;34.30;98353.70;2177586;81;21010;-87
2022/05/12 10:11:29;;;;;;;8.80;4.70;;;;;;;27.95;34.58;98360.09;2181796;81;21103;-84
2022/05/12 10:14:29;;;;;;;8.40;3.77;;;;;;;27.78;34.14;98365.54;2161251;81;21087;-87
2022/05/12 10:17:30;;;;;;;6.17;3.33;;;;;;;27.65;34.38;98366.88;2154406;81;21039;-87
2022/05/12 10:20:31;;;;;;;4.65;3.20;;;;;;;27.55;34.72;98371.11;2168930;81;21102;-86
2022/05/12 10:23:32;;;;;;;8.70;3.87;;;;;;;27.47;34.72;98381.45;2173459;81;21012;-87
2022/05/12 10:26:33;;;;;;;16.60;4.20;;;;;;;27.42;34.48;98374.02;2166704;81;21643;-85
2022/05/12 10:29:34;;;;;;;6.25;3.30;;;;;;;27.25;34.67;98377.31;2170637;81;20997;-88
2022/05/12 10:32:35;;;;;;;15.38;5.00;;;;;;;27.16;35.03;98371.82;2169016;81;21011;-85
2022/05/12 10:35:36;;;;;;;7.10;3.58;;;;;;;27.08;34.56;98373.84;2172303;81;21144;-87
2022/05/12 10:38:37;;;;;;;3.67;2.67;;;;;;;26.85;34.55;98376.87;2157793;81;21031;-86
2022/05/12 10:41:37;;;;;;;5.80;2.87;;;;;;;26.75;35.53;98362.81;2182865;81;21047;-84
2022/05/12 10:44:38;;;;;;;3.15;2.60;;;;;;;26.70;35.53;98381.16;2185258;81;21063;-87
2022/05/12 10:47:39;;;;;;;9.55;3.40;;;;;;;26.80;35.37;98367.57;2166833;81;21015;-86
2022/05/12 10:50:40;;;;;;;7.30;2.90;;;;;;;27.09;35.57;98401.51;2188489;81;21068;-87
2022/05/12 10:53:40;;;;;;;16.02;4.10;;;;;;;27.14;35.19;98390.11;2180836;81;21132;-85
2022/05/12 10:56:41;;;;;;;10.82;3.60;;;;;;;26.90;35.87;98439.92;2166553;81;21586;-87
2022/05/12 10:59:42;;;;;;;6.47;3.35;;;;;;;26.70;36.62;98412.56;2170776;81;20953;-85
2022/05/12 11:02:43;;;;;;;8.25;3.92;;;;;;;26.55;36.90;98428.36;2182793;81;21079;-85
2022/05/12 11:05:44;;;;;;;8.73;3.67;;;;;;;26.44;36.89;98434.97;2189431;81;20996;-86
2022/05/12 11:08:44;;;;;;;10.53;3.70;;;;;;;26.42;36.96;98437.13;2181765;81;21107;-88
2022/05/12 11:11:45;;;;;;;6.10;3.52;;;;;;;26.30;36.11;98423.56;2188239;81;21507;-88
2022/05/12 11:14:46;;;;;;;7.50;3.27;;;;;;;26.49;36.53;98434.88;2162751;81;21069;-87
2022/05/12 11:17:47;;;;;;;7.95;3.83;;;;;;;26.61;36.60;98446.01;2188694;81;21119;-88
2022/05/12 11:20:48;;;;;;;4.55;3.33;;;;;;;26.66;35.99;98453.97;2158305;81;20988;-87
2022/05/12 11:23:49;;;;;;;27.60;4.10;;;;;;;26.74;35.57;98464.06;2168424;81;21051;-87
2022/05/12 11:26:50;;;;;;;8.88;3.35;;;;;;;26.67;34.53;98450.74;2169858;81;21012;-86
2022/05/12 11:29:51;;;;;;;4.37;2.80;;;;;;;26.53;34.56;98458.73;2156230;81;21068;-88
2022/05/12 11:32:52;;;;;;;3.58;3.10;;;;;;;26.44;35.01;98445.16;2175527;81;21059;-87
2022/05/12 11:35:52;;;;;;;12.15;3.72;;;;;;;26.47;34.97;98452.63;2171360;81;21035;-85
2022/05/12 11:38:53;;;;;;;67.60;9.78;;;;;;;26.48;34.34;98466.30;2158010;81;21538;-85
2022/05/12 11:41:54;;;;;;;11.50;4.20;;;;;;;26.35;33.61;98465.65;2174396;81;21019;-86
2022/05/12 11:44:54;;;;;;;27.02;4.60;;;;;;;26.07;33.60;98470.81;2179300;81;21547;-84
2022/05/12 11:47:55;;;;;;;7.50;2.92;;;;;;;25.91;33.54;98464.02;2175998;81;21558;-84
2022/05/12 11:50:56;;;;;;;7.95;3.62;;;;;;;25.82;33.55;98477.80;2167058;81;21091;-86
2022/05/12 11:53:57;;;;;;;9.55;3.00;;;;;;;25.90;33.20;98477.18;2184903;81;21087;-85
2022/05/12 11:56:57;;;;;;;9.78;3.17;;;;;;;26.05;33.43;98488.27;2174502;81;21008;-86
2022/05/12 11:59:58;;;;;;;3.05;2.72;;;;;;;26.26;33.85;98492.33;2187791;81;21039;-86
2022/05/12 12:02:59;;;;;;;5.42;3.70;;;;;;;26.53;34.27;98493.63;2178996;81;21039;-87
2022/05/12 12:06:00;;;;;;;6.33;4.12;;;;;;;26.55;34.78;98523.66;2185552;81;21016;-88
2022/05/12 12:09:01;;;;;;;7.65;3.85;;;;;;;26.43;34.87;98506.64;2174018;81;21486;-84
2022/05/12 12:12:02;;;;;;;11.68;3.75;;;;;;;26.21;35.09;98516.52;2154840;81;21459;-87
2022/05/12 12:15:03;;;;;;;6.62;3.17;;;;;;;25.98;35.46;98515.99;2179563;81;21623;-86
2022/05/12 12:18:03;;;;;;;8.35;3.00;;;;;;;25.87;36.04;98493.02;2172427;81;20969;-86
2022/05/12 12:21:04;;;;;;;6.58;3.05;;;;;;;25.83;35.88;98508.89;2154000;81;21028;-86
2022/05/12 12:24:08;;;;;;;24.27;5.00;;;;;;;25.76;35.78;98521.28;2181126;81;21071;-87
2022/05/12 12:27:07;;;;;;;7.67;2.83;;;;;;;25.80;34.37;98516.97;2191773;81;21033;-86
2022/05/12 12:30:08;;;;;;;9.93;3.15;;;;;;;25.82;34.54;98523.39;2185741;81;21119;-87
2022/05/12 12:33:08;;;;;;;6.85;2.17;;;;;;;25.78;33.20;98511.06;2176198;81;21530;-84
2022/05/12 12:36:09;;;;;;;3.12;2.40;;;;;;;25.82;34.24;98523.39;2153793;81;21052;-84
2022/05/12 12:39:10;;;;;;;8.48;2.67;;;;;;;25.73;34.74;98538.48;2173971;81;21112;-85
2022/05/12 12:42:11;;;;;;;4.42;2.62;;;;;;;25.56;35.50;98546.91;2154095;81;21035;-82
2022/05/12 12:45:11;;;;;;;5.90;2.37;;;;;;;25.48;35.75;98538.13;2186564;81;21091;-86
2022/05/12 12:48:12;;;;;;;5.55;3.02;;;;;;;25.56;35.81;98543.43;2188857;81;21590;-86
2022/05/12 12:51:13;;;;;;;3.33;2.12;;;;;;;25.65;35.36;98538.52;2186633;81;21104;-85
2022/05/12 12:57:35;;;;;;;6.12;3.25;;;;;;;25.80;35.01;98548.34;2188576;81;21066;-86
2022/05/12 13:00:36;;;;;;;4.85;2.25;;;;;;;25.79;34.76;98546.75;2153788;81;21027;-83
2022/05/12 13:03:39;;;;;;;59.90;8.13;;;;;;;25.73;35.04;98558.05;2183108;81;21143;-86
2022/05/12 13:06:41;;;;;;;9.05;2.02;;;;;;;25.57;35.31;98566.47;2172259;81;21091;-85
2022/05/12 13:09:42;;;;;;;6.53;2.17;;;;;;;25.35;35.41;98576.30;2179102;81;21483;-85
2022/05/12 13:12:42;;;;;;;10.03;2.37;;;;;;;25.15;35.93;98573.22;2179670;81;21083;-84
2022/05/12 13:15:43;;;;;;;3.80;2.02;;;;;;;25.05;36.29;98582.63;2167708;81;21023;-85
2022/05/12 13:18:45;;;;;;;13.53;2.83;;;;;;;24.96;37.39;98577.02;2167080;81;21103;-85
2022/05/12 13:21:45;;;;;;;7.10;1.57;;;;;;;24.86;35.92;98588.59;2169480;81;21060;-85
2022/05/12 13:24:46;;;;;;;7.42;2.62;;;;;;;24.79;35.69;98568.03;2170559;81;21098;-84
2022/05/12 13:27:47;;;;;;;8.53;1.52;;;;;;;24.72;35.54;98574.22;2174342;81;21558;-83
2022/05/12 13:30:48;;;;;;;7.65;2.17;;;;;;;24.78;35.47;98577.66;2171226;81;21030;-85
2022/05/12 13:33:49;;;;;;;6.20;1.80;;;;;;;24.96;34.73;98568.98;2180966;81;21558;-85
2022/05/12 13:36:49;;;;;;;7.80;1.40;;;;;;;25.21;34.84;98574.23;2165549;81;21005;-88
2022/05/12 13:39:50;;;;;;;11.50;1.60;;;;;;;25.33;33.63;98561.84;2181711;81;21071;-88
2022/05/12 13:42:53;;;;;;;9.35;2.08;;;;;;;25.38;33.89;98571.70;2173533;81;21530;-82
2022/05/12 13:45:56;;;;;;;4.97;1.05;;;;;;;25.23;33.75;98571.27;2164410;81;21484;-85
2022/05/12 13:48:58;;;;;;;4.53;1.72;;;;;;;25.13;34.08;98582.05;2170711;81;21044;-85
2022/05/12 13:52:02;;;;;;;3.90;1.37;;;;;;;25.08;33.50;98571.38;2177679;81;21027;-87
2022/05/12 13:55:05;;;;;;;14.93;1.90;;;;;;;25.00;33.41;98566.58;2177749;81;21407;-86
2022/05/12 13:58:05;;;;;;;6.67;1.75;;;;;;;25.01;33.05;98562.82;2185586;81;21139;-83
2022/05/12 14:01:06;;;;;;;10.05;1.67;;;;;;;25.07;32.45;98587.20;2187143;81;21007;-85
2022/05/12 14:04:07;;;;;;;9.20;1.67;;;;;;;25.06;31.92;98590.95;2180101;81;21101;-85
2022/05/12 14:07:08;;;;;;;23.98;2.12;;;;;;;25.03;32.95;98594.96;2186014;81;21032;-85
2022/05/12 14:10:09;;;;;;;7.05;2.17;;;;;;;24.86;33.59;98612.69;2186448;81;21035;-85
2022/05/12 14:19:49;;;;;;;13.32;2.08;;;;;;;24.30;34.96;98604.83;2156119;81;21665;-84
2022/05/12 14:22:52;;;;;;;13.32;1.50;;;;;;;24.27;35.38;98621.96;2166107;81;21055;-86
2022/05/12 14:25:54;;;;;;;8.40;1.72;;;;;;;24.26;35.65;98618.48;2165088;81;21027;-86
2022/05/12 14:28:55;;;;;;;5.92;1.35;;;;;;;24.30;35.90;98622.75;2153340;81;21519;-85
2022/05/12 14:31:56;;;;;;;11.75;1.72;;;;;;;24.32;35.42;98625.47;2172737;81;21016;-86
2022/05/12 14:34:56;;;;;;;6.92;1.60;;;;;;;24.32;35.25;98617.45;2179622;81;21051;-85